Baton Rouge, LA

5:08 PM CST on December 04, 2016 (GMT -0600)
Beauregard Town | | Change Station

Elev 95 ft 30.44 °N, 91.18 °W | Updated 1 second ago

Rain
Rain Mist
57.7 °F
Feels Like 57.7 °F
N
0.0
Wind Variable Wind from ENE
Gusts 0.0 mph

Today
High -- | Low -- °F
--% Chance of Precip.
Yesterday
High -- | Low -- °F
Precip. -- in
Pressure 29.95 in
Visibility 5.0 miles
Clouds Few 1400 ft
Mostly Cloudy 9500 ft
Overcast 11000 ft
Dew Point 58 °F
Humidity 99%
Rainfall 1.91 in
Snow Depth Not available.
6:46 AM 5:03 PM
Waxing Crescent, 26% visible
SPECI KBTR 042300Z 03006KT 5SM RA BR FEW014 BKN095 OVC110 13/13 A2995 RMK AO2 P0001 T01330128
Pressure 29.95 in
Visibility 5.0 miles
Clouds Few 1400 ft
Mostly Cloudy 9500 ft
Overcast 11000 ft
Dew Point 58 °F
Humidity 99%
Rainfall 1.91 in
Snow Depth Not available.
6:46 AM 5:03 PM
Waxing Crescent, 26% visible
SPECI KBTR 042300Z 03006KT 5SM RA BR FEW014 BKN095 OVC110 13/13 A2995 RMK AO2 P0001 T01330128

10-Day Weather Forecast

Almanac

Astronomy

Dec. 04, 2016 Rise Set
Actual Time
Civil Twilight
Nautical Twilight
Astronomical Twilight
Moon
Length of Visible Light
Length of Day
Tomorrow will be .
, % of the Moon is Illuminated

Today's Extremes

State Highs State Lows

Community

WunderPhotos

Upload Photos

1,955,695 photos uploaded!

WunderBlog® & News

Nearby

Air Quality

  Air Quality AQ Index Pollutant
Not available.

Snow Depth

Station Depth Elevation

Earthquake Activity

City Distance Mag. Time & Date
Minimum magnitude displayed is 2.5.

Coastal Water Temperatures

Place Temperature

Stations

Nearby Weather Stations

Station Location Temp. Windchill Dew Point Humidity Wind Precip. Elev Updated Type
                   

Watches & Warnings

There are currently no watches in effect.